sensor_id;sensor_type;location;lat;lon;timestamp;P1;durP1;ratioP1;P2;durP2;ratioP2
26718;SDS011;14326;50.794;6.060;2022-07-29T00:01:03;7.10;;;1.83;;
26718;SDS011;14326;50.794;6.060;2022-07-29T00:03:29;10.07;;;2.55;;
26718;SDS011;14326;50.794;6.060;2022-07-29T00:05:56;9.50;;;1.98;;
26718;SDS011;14326;50.794;6.060;2022-07-29T00:08:25;9.18;;;2.05;;
26718;SDS011;14326;50.794;6.060;2022-07-29T00:10:51;3.50;;;1.33;;
26718;SDS011;14326;50.794;6.060;2022-07-29T00:13:18;13.35;;;2.28;;
26718;SDS011;14326;50.794;6.060;2022-07-29T00:15:45;8.15;;;2.15;;
26718;SDS011;14326;50.794;6.060;2022-07-29T00:18:11;8.02;;;1.70;;
26718;SDS011;14326;50.794;6.060;2022-07-29T00:20:38;9.85;;;2.10;;
26718;SDS011;14326;50.794;6.060;2022-07-29T00:23:05;10.50;;;2.20;;
26718;SDS011;14326;50.794;6.060;2022-07-29T00:25:33;11.60;;;2.15;;
26718;SDS011;14326;50.794;6.060;2022-07-29T00:28:00;6.93;;;2.00;;
26718;SDS011;14326;50.794;6.060;2022-07-29T00:30:26;11.48;;;2.15;;
26718;SDS011;14326;50.794;6.060;2022-07-29T00:32:53;5.40;;;1.90;;
26718;SDS011;14326;50.794;6.060;2022-07-29T00:35:20;7.47;;;1.90;;
26718;SDS011;14326;50.794;6.060;2022-07-29T00:38:04;8.30;;;2.20;;
26718;SDS011;14326;50.794;6.060;2022-07-29T00:40:32;9.10;;;1.75;;
26718;SDS011;14326;50.794;6.060;2022-07-29T00:42:59;13.93;;;2.17;;
26718;SDS011;14326;50.794;6.060;2022-07-29T00:45:26;12.05;;;2.50;;
26718;SDS011;14326;50.794;6.060;2022-07-29T00:47:54;8.98;;;1.95;;
26718;SDS011;14326;50.794;6.060;2022-07-29T00:50:21;8.68;;;2.25;;
26718;SDS011;14326;50.794;6.060;2022-07-29T00:52:49;9.40;;;1.80;;
26718;SDS011;14326;50.794;6.060;2022-07-29T00:55:17;8.63;;;2.10;;
26718;SDS011;14326;50.794;6.060;2022-07-29T00:57:46;7.95;;;1.98;;
26718;SDS011;14326;50.794;6.060;2022-07-29T01:00:14;8.35;;;1.80;;
26718;SDS011;14326;50.794;6.060;2022-07-29T01:02:42;8.73;;;1.50;;
26718;SDS011;14326;50.794;6.060;2022-07-29T01:05:09;10.93;;;2.03;;
26718;SDS011;14326;50.794;6.060;2022-07-29T01:07:38;8.95;;;1.90;;
26718;SDS011;14326;50.794;6.060;2022-07-29T01:10:06;11.43;;;1.95;;
26718;SDS011;14326;50.794;6.060;2022-07-29T01:12:35;7.07;;;1.35;;
26718;SDS011;14326;50.794;6.060;2022-07-29T01:15:06;12.32;;;2.40;;
26718;SDS011;14326;50.794;6.060;2022-07-29T01:17:36;12.60;;;2.25;;
26718;SDS011;14326;50.794;6.060;2022-07-29T01:20:10;9.50;;;2.17;;
26718;SDS011;14326;50.794;6.060;2022-07-29T01:22:52;11.10;;;2.25;;
26718;SDS011;14326;50.794;6.060;2022-07-29T01:28:49;19.13;;;2.50;;
26718;SDS011;14326;50.794;6.060;2022-07-29T01:31:27;15.65;;;2.80;;
26718;SDS011;14326;50.794;6.060;2022-07-29T01:33:58;8.25;;;2.38;;
26718;SDS011;14326;50.794;6.060;2022-07-29T01:36:31;10.40;;;2.00;;
26718;SDS011;14326;50.794;6.060;2022-07-29T01:39:04;13.57;;;2.50;;
26718;SDS011;14326;50.794;6.060;2022-07-29T01:41:35;11.35;;;2.80;;
26718;SDS011;14326;50.794;6.060;2022-07-29T01:46:38;11.70;;;2.58;;
26718;SDS011;14326;50.794;6.060;2022-07-29T01:49:08;9.45;;;2.20;;
26718;SDS011;14326;50.794;6.060;2022-07-29T01:51:41;14.45;;;2.20;;
26718;SDS011;14326;50.794;6.060;2022-07-29T01:54:14;11.77;;;2.33;;
26718;SDS011;14326;50.794;6.060;2022-07-29T01:56:47;14.48;;;2.38;;
26718;SDS011;14326;50.794;6.060;2022-07-29T01:59:17;10.43;;;2.38;;
26718;SDS011;14326;50.794;6.060;2022-07-29T02:01:45;6.88;;;1.73;;
26718;SDS011;14326;50.794;6.060;2022-07-29T02:04:14;8.65;;;2.17;;
26718;SDS011;14326;50.794;6.060;2022-07-29T02:06:42;9.07;;;2.22;;
26718;SDS011;14326;50.794;6.060;2022-07-29T02:09:12;10.00;;;2.22;;
26718;SDS011;14326;50.794;6.060;2022-07-29T02:11:41;10.13;;;2.13;;
26718;SDS011;14326;50.794;6.060;2022-07-29T02:14:13;11.98;;;2.55;;
26718;SDS011;14326;50.794;6.060;2022-07-29T02:16:43;12.10;;;2.63;;
26718;SDS011;14326;50.794;6.060;2022-07-29T02:19:11;8.67;;;1.93;;
26718;SDS011;14326;50.794;6.060;2022-07-29T02:21:40;7.40;;;1.83;;
26718;SDS011;14326;50.794;6.060;2022-07-29T02:24:09;9.85;;;2.10;;
26718;SDS011;14326;50.794;6.060;2022-07-29T02:26:38;10.65;;;2.33;;
26718;SDS011;14326;50.794;6.060;2022-07-29T02:29:07;13.07;;;2.20;;
26718;SDS011;14326;50.794;6.060;2022-07-29T02:31:35;10.23;;;2.30;;
26718;SDS011;14326;50.794;6.060;2022-07-29T02:34:06;10.93;;;2.35;;
26718;SDS011;14326;50.794;6.060;2022-07-29T02:36:34;12.07;;;2.15;;
26718;SDS011;14326;50.794;6.060;2022-07-29T02:39:01;12.05;;;2.67;;
26718;SDS011;14326;50.794;6.060;2022-07-29T02:41:35;12.15;;;2.45;;
26718;SDS011;14326;50.794;6.060;2022-07-29T02:44:09;8.80;;;2.38;;
26718;SDS011;14326;50.794;6.060;2022-07-29T02:46:43;9.15;;;2.17;;
26718;SDS011;14326;50.794;6.060;2022-07-29T02:49:16;7.72;;;2.30;;
26718;SDS011;14326;50.794;6.060;2022-07-29T02:51:51;9.63;;;1.90;;
26718;SDS011;14326;50.794;6.060;2022-07-29T02:54:23;10.38;;;2.47;;
26718;SDS011;14326;50.794;6.060;2022-07-29T02:56:55;11.98;;;2.33;;
26718;SDS011;14326;50.794;6.060;2022-07-29T02:59:25;12.43;;;2.78;;
26718;SDS011;14326;50.794;6.060;2022-07-29T03:01:54;8.37;;;2.50;;
26718;SDS011;14326;50.794;6.060;2022-07-29T03:04:25;8.50;;;2.08;;
26718;SDS011;14326;50.794;6.060;2022-07-29T03:06:55;8.15;;;2.20;;
26718;SDS011;14326;50.794;6.060;2022-07-29T03:09:25;11.05;;;2.40;;
26718;SDS011;14326;50.794;6.060;2022-07-29T03:11:52;10.35;;;2.78;;
26718;SDS011;14326;50.794;6.060;2022-07-29T03:14:20;10.30;;;2.42;;
26718;SDS011;14326;50.794;6.060;2022-07-29T03:16:48;10.80;;;2.65;;
26718;SDS011;14326;50.794;6.060;2022-07-29T03:19:15;11.45;;;2.58;;
26718;SDS011;14326;50.794;6.060;2022-07-29T03:21:44;9.13;;;2.47;;
26718;SDS011;14326;50.794;6.060;2022-07-29T03:24:10;13.75;;;2.80;;
26718;SDS011;14326;50.794;6.060;2022-07-29T03:26:50;8.27;;;2.20;;
26718;SDS011;14326;50.794;6.060;2022-07-29T03:29:17;11.48;;;2.60;;
26718;SDS011;14326;50.794;6.060;2022-07-29T03:31:44;12.63;;;2.40;;
26718;SDS011;14326;50.794;6.060;2022-07-29T03:34:10;7.70;;;2.17;;
26718;SDS011;14326;50.794;6.060;2022-07-29T03:36:37;10.55;;;2.47;;
26718;SDS011;14326;50.794;6.060;2022-07-29T03:39:05;11.68;;;3.15;;
26718;SDS011;14326;50.794;6.060;2022-07-29T03:41:33;10.75;;;2.83;;
26718;SDS011;14326;50.794;6.060;2022-07-29T03:44:03;9.70;;;2.63;;
26718;SDS011;14326;50.794;6.060;2022-07-29T03:46:31;10.77;;;2.50;;
26718;SDS011;14326;50.794;6.060;2022-07-29T03:49:01;11.27;;;2.93;;
26718;SDS011;14326;50.794;6.060;2022-07-29T03:51:30;10.00;;;2.75;;
26718;SDS011;14326;50.794;6.060;2022-07-29T03:53:57;12.20;;;2.72;;
26718;SDS011;14326;50.794;6.060;2022-07-29T03:56:25;8.55;;;2.25;;
26718;SDS011;14326;50.794;6.060;2022-07-29T03:58:54;12.05;;;3.00;;
26718;SDS011;14326;50.794;6.060;2022-07-29T04:01:22;9.63;;;2.80;;
26718;SDS011;14326;50.794;6.060;2022-07-29T04:03:49;12.43;;;2.67;;
26718;SDS011;14326;50.794;6.060;2022-07-29T04:06:16;10.60;;;2.90;;
26718;SDS011;14326;50.794;6.060;2022-07-29T04:08:43;12.55;;;3.25;;
26718;SDS011;14326;50.794;6.060;2022-07-29T04:11:09;11.90;;;2.92;;
26718;SDS011;14326;50.794;6.060;2022-07-29T04:13:37;14.68;;;3.08;;
26718;SDS011;14326;50.794;6.060;2022-07-29T04:16:04;13.85;;;2.85;;
26718;SDS011;14326;50.794;6.060;2022-07-29T04:18:31;10.57;;;2.58;;
26718;SDS011;14326;50.794;6.060;2022-07-29T04:20:57;11.35;;;2.97;;
26718;SDS011;14326;50.794;6.060;2022-07-29T04:23:25;11.10;;;2.53;;
26718;SDS011;14326;50.794;6.060;2022-07-29T04:25:52;10.63;;;2.58;;
26718;SDS011;14326;50.794;6.060;2022-07-29T04:28:19;7.88;;;2.50;;
26718;SDS011;14326;50.794;6.060;2022-07-29T04:30:47;10.32;;;2.75;;
26718;SDS011;14326;50.794;6.060;2022-07-29T04:33:13;10.52;;;2.88;;
26718;SDS011;14326;50.794;6.060;2022-07-29T04:35:40;13.73;;;3.00;;
26718;SDS011;14326;50.794;6.060;2022-07-29T04:38:07;9.48;;;2.70;;
26718;SDS011;14326;50.794;6.060;2022-07-29T04:40:33;9.50;;;2.45;;
26718;SDS011;14326;50.794;6.060;2022-07-29T04:43:00;12.45;;;2.63;;
26718;SDS011;14326;50.794;6.060;2022-07-29T04:45:27;13.45;;;2.40;;
26718;SDS011;14326;50.794;6.060;2022-07-29T04:47:55;12.15;;;2.83;;
26718;SDS011;14326;50.794;6.060;2022-07-29T04:50:22;13.88;;;3.05;;
26718;SDS011;14326;50.794;6.060;2022-07-29T04:52:49;10.95;;;2.50;;
26718;SDS011;14326;50.794;6.060;2022-07-29T04:55:16;12.73;;;2.70;;
26718;SDS011;14326;50.794;6.060;2022-07-29T04:57:42;12.82;;;2.92;;
26718;SDS011;14326;50.794;6.060;2022-07-29T05:00:09;10.43;;;2.60;;
26718;SDS011;14326;50.794;6.060;2022-07-29T05:02:37;12.00;;;2.60;;
26718;SDS011;14326;50.794;6.060;2022-07-29T05:05:05;10.52;;;2.83;;
26718;SDS011;14326;50.794;6.060;2022-07-29T05:07:32;11.70;;;2.72;;
26718;SDS011;14326;50.794;6.060;2022-07-29T05:09:59;12.35;;;2.72;;
26718;SDS011;14326;50.794;6.060;2022-07-29T05:12:25;10.73;;;3.35;;
26718;SDS011;14326;50.794;6.060;2022-07-29T05:14:52;10.50;;;2.50;;
26718;SDS011;14326;50.794;6.060;2022-07-29T05:17:19;12.80;;;3.22;;
26718;SDS011;14326;50.794;6.060;2022-07-29T05:19:46;12.00;;;2.78;;
26718;SDS011;14326;50.794;6.060;2022-07-29T05:22:14;13.20;;;2.88;;
26718;SDS011;14326;50.794;6.060;2022-07-29T05:24:40;9.43;;;2.60;;
26718;SDS011;14326;50.794;6.060;2022-07-29T05:27:07;10.38;;;2.70;;
26718;SDS011;14326;50.794;6.060;2022-07-29T05:29:34;10.25;;;2.78;;
26718;SDS011;14326;50.794;6.060;2022-07-29T05:32:01;10.07;;;2.72;;
26718;SDS011;14326;50.794;6.060;2022-07-29T05:34:28;11.80;;;2.97;;
26718;SDS011;14326;50.794;6.060;2022-07-29T05:36:55;11.63;;;3.20;;
26718;SDS011;14326;50.794;6.060;2022-07-29T05:39:23;10.15;;;2.60;;
26718;SDS011;14326;50.794;6.060;2022-07-29T05:41:50;8.68;;;2.60;;
26718;SDS011;14326;50.794;6.060;2022-07-29T05:44:17;12.73;;;2.90;;
26718;SDS011;14326;50.794;6.060;2022-07-29T05:46:43;13.40;;;2.78;;
26718;SDS011;14326;50.794;6.060;2022-07-29T05:49:10;15.73;;;3.08;;
26718;SDS011;14326;50.794;6.060;2022-07-29T05:51:37;9.82;;;2.60;;
26718;SDS011;14326;50.794;6.060;2022-07-29T05:54:04;10.07;;;2.55;;
26718;SDS011;14326;50.794;6.060;2022-07-29T05:56:32;11.32;;;2.90;;
26718;SDS011;14326;50.794;6.060;2022-07-29T05:58:58;14.07;;;3.22;;
26718;SDS011;14326;50.794;6.060;2022-07-29T06:01:25;10.13;;;2.50;;
26718;SDS011;14326;50.794;6.060;2022-07-29T06:03:52;18.40;;;2.95;;
26718;SDS011;14326;50.794;6.060;2022-07-29T06:06:18;10.93;;;2.78;;
26718;SDS011;14326;50.794;6.060;2022-07-29T06:08:45;11.80;;;2.70;;
26718;SDS011;14326;50.794;6.060;2022-07-29T06:11:12;12.63;;;2.75;;
26718;SDS011;14326;50.794;6.060;2022-07-29T06:13:40;11.65;;;2.65;;
26718;SDS011;14326;50.794;6.060;2022-07-29T06:16:06;12.82;;;2.85;;
26718;SDS011;14326;50.794;6.060;2022-07-29T06:18:33;11.70;;;2.90;;
26718;SDS011;14326;50.794;6.060;2022-07-29T06:21:00;16.33;;;3.20;;
26718;SDS011;14326;50.794;6.060;2022-07-29T06:23:26;9.93;;;2.42;;
26718;SDS011;14326;50.794;6.060;2022-07-29T06:25:53;13.32;;;2.90;;
26718;SDS011;14326;50.794;6.060;2022-07-29T06:28:19;15.00;;;3.00;;
26718;SDS011;14326;50.794;6.060;2022-07-29T06:30:47;11.00;;;3.13;;
26718;SDS011;14326;50.794;6.060;2022-07-29T06:33:17;10.18;;;2.97;;
26718;SDS011;14326;50.794;6.060;2022-07-29T06:35:44;10.88;;;2.63;;
26718;SDS011;14326;50.794;6.060;2022-07-29T06:38:12;11.65;;;2.90;;
26718;SDS011;14326;50.794;6.060;2022-07-29T06:40:40;13.15;;;2.88;;
26718;SDS011;14326;50.794;6.060;2022-07-29T06:43:25;12.98;;;3.20;;
26718;SDS011;14326;50.794;6.060;2022-07-29T06:45:53;12.35;;;2.83;;
26718;SDS011;14326;50.794;6.060;2022-07-29T06:48:19;12.77;;;3.58;;
26718;SDS011;14326;50.794;6.060;2022-07-29T06:50:46;10.40;;;3.10;;
26718;SDS011;14326;50.794;6.060;2022-07-29T06:53:13;14.63;;;3.05;;
26718;SDS011;14326;50.794;6.060;2022-07-29T06:55:39;11.80;;;3.20;;
26718;SDS011;14326;50.794;6.060;2022-07-29T06:58:07;13.60;;;3.58;;
26718;SDS011;14326;50.794;6.060;2022-07-29T07:00:34;17.83;;;3.20;;
26718;SDS011;14326;50.794;6.060;2022-07-29T07:03:02;11.48;;;2.97;;
26718;SDS011;14326;50.794;6.060;2022-07-29T07:05:29;15.38;;;3.20;;
26718;SDS011;14326;50.794;6.060;2022-07-29T07:07:56;12.50;;;3.13;;
26718;SDS011;14326;50.794;6.060;2022-07-29T07:10:23;13.32;;;3.05;;
26718;SDS011;14326;50.794;6.060;2022-07-29T07:12:49;12.30;;;3.45;;
26718;SDS011;14326;50.794;6.060;2022-07-29T07:15:16;10.85;;;3.08;;
26718;SDS011;14326;50.794;6.060;2022-07-29T07:17:46;13.55;;;2.83;;
26718;SDS011;14326;50.794;6.060;2022-07-29T07:20:14;14.02;;;2.97;;
26718;SDS011;14326;50.794;6.060;2022-07-29T07:22:42;16.00;;;3.03;;
26718;SDS011;14326;50.794;6.060;2022-07-29T07:25:09;12.70;;;2.88;;
26718;SDS011;14326;50.794;6.060;2022-07-29T07:27:36;10.63;;;2.28;;
26718;SDS011;14326;50.794;6.060;2022-07-29T07:30:03;11.35;;;2.90;;
26718;SDS011;14326;50.794;6.060;2022-07-29T07:32:31;13.50;;;2.97;;
26718;SDS011;14326;50.794;6.060;2022-07-29T07:34:58;12.27;;;2.90;;
26718;SDS011;14326;50.794;6.060;2022-07-29T07:37:26;14.50;;;2.70;;
26718;SDS011;14326;50.794;6.060;2022-07-29T07:39:53;10.73;;;2.78;;
26718;SDS011;14326;50.794;6.060;2022-07-29T07:42:20;8.98;;;3.17;;
26718;SDS011;14326;50.794;6.060;2022-07-29T07:44:47;14.32;;;3.00;;
26718;SDS011;14326;50.794;6.060;2022-07-29T07:47:14;13.10;;;3.30;;
26718;SDS011;14326;50.794;6.060;2022-07-29T07:49:44;18.42;;;4.90;;
26718;SDS011;14326;50.794;6.060;2022-07-29T07:52:11;13.32;;;3.40;;
26718;SDS011;14326;50.794;6.060;2022-07-29T07:54:39;11.85;;;3.58;;
26718;SDS011;14326;50.794;6.060;2022-07-29T07:57:06;15.02;;;3.67;;
26718;SDS011;14326;50.794;6.060;2022-07-29T07:59:32;13.15;;;3.47;;
26718;SDS011;14326;50.794;6.060;2022-07-29T08:01:59;13.10;;;3.70;;
26718;SDS011;14326;50.794;6.060;2022-07-29T08:04:26;11.48;;;3.10;;
26718;SDS011;14326;50.794;6.060;2022-07-29T08:06:53;12.30;;;3.10;;
26718;SDS011;14326;50.794;6.060;2022-07-29T08:09:20;14.35;;;3.33;;
26718;SDS011;14326;50.794;6.060;2022-07-29T08:11:48;12.85;;;3.72;;
26718;SDS011;14326;50.794;6.060;2022-07-29T08:14:14;13.13;;;3.40;;
26718;SDS011;14326;50.794;6.060;2022-07-29T08:16:41;16.52;;;4.18;;
26718;SDS011;14326;50.794;6.060;2022-07-29T08:19:08;13.82;;;3.55;;
26718;SDS011;14326;50.794;6.060;2022-07-29T08:21:35;13.48;;;2.80;;
26718;SDS011;14326;50.794;6.060;2022-07-29T08:24:02;13.68;;;3.65;;
26718;SDS011;14326;50.794;6.060;2022-07-29T08:26:48;14.00;;;3.28;;
26718;SDS011;14326;50.794;6.060;2022-07-29T08:29:14;14.98;;;3.42;;
26718;SDS011;14326;50.794;6.060;2022-07-29T08:31:41;16.40;;;3.63;;
26718;SDS011;14326;50.794;6.060;2022-07-29T08:34:08;14.10;;;3.42;;
26718;SDS011;14326;50.794;6.060;2022-07-29T08:36:35;11.93;;;3.40;;
26718;SDS011;14326;50.794;6.060;2022-07-29T08:39:02;14.88;;;3.08;;
26718;SDS011;14326;50.794;6.060;2022-07-29T08:41:29;15.27;;;3.67;;
26718;SDS011;14326;50.794;6.060;2022-07-29T08:43:58;15.52;;;3.45;;
26718;SDS011;14326;50.794;6.060;2022-07-29T08:46:24;13.43;;;4.30;;
26718;SDS011;14326;50.794;6.060;2022-07-29T08:48:51;13.50;;;4.07;;
26718;SDS011;14326;50.794;6.060;2022-07-29T08:51:18;12.55;;;4.47;;
26718;SDS011;14326;50.794;6.060;2022-07-29T08:53:46;15.00;;;4.30;;
26718;SDS011;14326;50.794;6.060;2022-07-29T08:56:15;15.27;;;4.32;;
26718;SDS011;14326;50.794;6.060;2022-07-29T08:58:43;15.02;;;4.18;;
26718;SDS011;14326;50.794;6.060;2022-07-29T09:01:11;14.23;;;3.72;;
26718;SDS011;14326;50.794;6.060;2022-07-29T09:03:42;15.68;;;3.70;;
26718;SDS011;14326;50.794;6.060;2022-07-29T09:06:12;12.45;;;3.95;;
26718;SDS011;14326;50.794;6.060;2022-07-29T09:08:39;12.95;;;3.17;;
26718;SDS011;14326;50.794;6.060;2022-07-29T09:11:06;15.52;;;3.78;;
26718;SDS011;14326;50.794;6.060;2022-07-29T09:13:33;13.55;;;3.15;;
26718;SDS011;14326;50.794;6.060;2022-07-29T09:16:00;14.70;;;3.67;;
26718;SDS011;14326;50.794;6.060;2022-07-29T09:18:34;10.23;;;3.28;;
26718;SDS011;14326;50.794;6.060;2022-07-29T09:21:02;8.50;;;2.53;;
26718;SDS011;14326;50.794;6.060;2022-07-29T09:24:00;14.85;;;2.67;;
26718;SDS011;14326;50.794;6.060;2022-07-29T09:26:28;12.75;;;3.08;;
26718;SDS011;14326;50.794;6.060;2022-07-29T09:28:56;11.30;;;2.67;;
26718;SDS011;14326;50.794;6.060;2022-07-29T09:31:26;10.90;;;2.83;;
26718;SDS011;14326;50.794;6.060;2022-07-29T09:34:01;11.30;;;3.20;;
26718;SDS011;14326;50.794;6.060;2022-07-29T09:36:28;11.07;;;3.00;;
26718;SDS011;14326;50.794;6.060;2022-07-29T09:38:58;12.68;;;3.00;;
26718;SDS011;14326;50.794;6.060;2022-07-29T09:41:26;11.23;;;3.40;;
26718;SDS011;14326;50.794;6.060;2022-07-29T09:43:53;13.27;;;3.15;;
26718;SDS011;14326;50.794;6.060;2022-07-29T09:46:21;15.93;;;4.25;;
26718;SDS011;14326;50.794;6.060;2022-07-29T09:51:33;14.65;;;4.15;;
26718;SDS011;14326;50.794;6.060;2022-07-29T09:54:00;11.60;;;3.88;;
26718;SDS011;14326;50.794;6.060;2022-07-29T09:56:38;13.98;;;3.60;;
26718;SDS011;14326;50.794;6.060;2022-07-29T09:59:06;13.45;;;3.90;;
26718;SDS011;14326;50.794;6.060;2022-07-29T10:01:33;16.02;;;3.70;;
26718;SDS011;14326;50.794;6.060;2022-07-29T10:04:01;10.38;;;3.08;;
26718;SDS011;14326;50.794;6.060;2022-07-29T10:06:30;13.65;;;3.63;;
26718;SDS011;14326;50.794;6.060;2022-07-29T10:09:06;13.07;;;3.22;;
26718;SDS011;14326;50.794;6.060;2022-07-29T10:11:34;12.70;;;3.50;;
26718;SDS011;14326;50.794;6.060;2022-07-29T10:14:01;13.27;;;3.13;;
26718;SDS011;14326;50.794;6.060;2022-07-29T10:16:29;13.00;;;2.85;;
26718;SDS011;14326;50.794;6.060;2022-07-29T10:18:58;18.90;;;3.53;;
26718;SDS011;14326;50.794;6.060;2022-07-29T10:21:26;13.60;;;3.30;;
26718;SDS011;14326;50.794;6.060;2022-07-29T10:23:54;12.13;;;3.28;;
26718;SDS011;14326;50.794;6.060;2022-07-29T10:28:49;13.85;;;3.47;;
26718;SDS011;14326;50.794;6.060;2022-07-29T10:31:19;14.93;;;3.70;;
26718;SDS011;14326;50.794;6.060;2022-07-29T10:33:55;16.33;;;3.60;;
26718;SDS011;14326;50.794;6.060;2022-07-29T10:36:38;13.95;;;3.33;;
26718;SDS011;14326;50.794;6.060;2022-07-29T10:39:19;15.38;;;3.55;;
26718;SDS011;14326;50.794;6.060;2022-07-29T10:42:02;13.10;;;3.50;;
26718;SDS011;14326;50.794;6.060;2022-07-29T10:44:43;15.55;;;4.05;;
26718;SDS011;14326;50.794;6.060;2022-07-29T10:47:19;13.00;;;3.33;;
26718;SDS011;14326;50.794;6.060;2022-07-29T10:49:54;11.65;;;3.10;;
26718;SDS011;14326;50.794;6.060;2022-07-29T10:52:22;10.52;;;3.47;;
26718;SDS011;14326;50.794;6.060;2022-07-29T10:57:24;11.90;;;3.20;;
26718;SDS011;14326;50.794;6.060;2022-07-29T11:02:56;11.50;;;3.65;;
26718;SDS011;14326;50.794;6.060;2022-07-29T11:05:23;13.73;;;3.63;;
26718;SDS011;14326;50.794;6.060;2022-07-29T11:10:50;12.98;;;3.90;;
26718;SDS011;14326;50.794;6.060;2022-07-29T11:16:15;16.20;;;3.92;;
26718;SDS011;14326;50.794;6.060;2022-07-29T11:21:47;11.18;;;3.53;;
26718;SDS011;14326;50.794;6.060;2022-07-29T11:24:16;15.32;;;4.05;;
26718;SDS011;14326;50.794;6.060;2022-07-29T11:29:31;13.25;;;3.75;;
26718;SDS011;14326;50.794;6.060;2022-07-29T11:32:07;11.73;;;4.18;;
26718;SDS011;14326;50.794;6.060;2022-07-29T11:34:37;13.68;;;3.80;;
26718;SDS011;14326;50.794;6.060;2022-07-29T11:37:18;12.13;;;3.95;;
26718;SDS011;14326;50.794;6.060;2022-07-29T11:39:47;12.77;;;3.80;;
26718;SDS011;14326;50.794;6.060;2022-07-29T11:42:43;11.82;;;3.22;;
26718;SDS011;14326;50.794;6.060;2022-07-29T11:45:12;11.35;;;3.05;;
26718;SDS011;14326;50.794;6.060;2022-07-29T11:50:15;12.50;;;3.17;;
26718;SDS011;14326;50.794;6.060;2022-07-29T11:52:42;12.75;;;4.35;;
26718;SDS011;14326;50.794;6.060;2022-07-29T11:55:12;14.68;;;3.97;;
26718;SDS011;14326;50.794;6.060;2022-07-29T11:57:47;13.15;;;3.50;;
26718;SDS011;14326;50.794;6.060;2022-07-29T12:00:25;12.23;;;3.40;;
26718;SDS011;14326;50.794;6.060;2022-07-29T12:02:55;14.23;;;3.83;;
26718;SDS011;14326;50.794;6.060;2022-07-29T12:05:30;12.52;;;4.10;;
26718;SDS011;14326;50.794;6.060;2022-07-29T12:08:04;11.85;;;3.53;;
26718;SDS011;14326;50.794;6.060;2022-07-29T12:10:31;14.07;;;3.45;;
26718;SDS011;14326;50.794;6.060;2022-07-29T12:13:00;11.73;;;3.60;;
26718;SDS011;14326;50.794;6.060;2022-07-29T12:15:26;10.63;;;3.25;;
26718;SDS011;14326;50.794;6.060;2022-07-29T12:17:53;12.48;;;3.85;;
26718;SDS011;14326;50.794;6.060;2022-07-29T12:20:23;12.45;;;3.17;;
26718;SDS011;14326;50.794;6.060;2022-07-29T12:22:51;14.38;;;3.78;;
26718;SDS011;14326;50.794;6.060;2022-07-29T12:25:20;14.27;;;4.45;;
26718;SDS011;14326;50.794;6.060;2022-07-29T12:27:47;7.65;;;2.42;;
26718;SDS011;14326;50.794;6.060;2022-07-29T12:30:34;10.27;;;2.80;;
26718;SDS011;14326;50.794;6.060;2022-07-29T12:33:10;13.32;;;2.97;;
26718;SDS011;14326;50.794;6.060;2022-07-29T12:35:38;12.93;;;3.25;;
26718;SDS011;14326;50.794;6.060;2022-07-29T12:38:05;10.05;;;2.75;;
26718;SDS011;14326;50.794;6.060;2022-07-29T12:40:32;12.98;;;3.95;;
26718;SDS011;14326;50.794;6.060;2022-07-29T12:43:06;14.90;;;3.78;;
26718;SDS011;14326;50.794;6.060;2022-07-29T12:45:35;13.05;;;3.53;;
26718;SDS011;14326;50.794;6.060;2022-07-29T12:48:02;11.52;;;3.30;;
26718;SDS011;14326;50.794;6.060;2022-07-29T12:50:29;12.82;;;3.55;;
26718;SDS011;14326;50.794;6.060;2022-07-29T12:53:07;9.75;;;3.35;;
26718;SDS011;14326;50.794;6.060;2022-07-29T12:55:38;11.27;;;3.30;;
26718;SDS011;14326;50.794;6.060;2022-07-29T12:58:06;10.80;;;3.15;;
26718;SDS011;14326;50.794;6.060;2022-07-29T13:00:33;11.00;;;3.30;;
26718;SDS011;14326;50.794;6.060;2022-07-29T13:03:01;11.40;;;3.63;;
26718;SDS011;14326;50.794;6.060;2022-07-29T13:05:38;18.35;;;7.13;;
26718;SDS011;14326;50.794;6.060;2022-07-29T13:08:10;12.02;;;3.47;;
26718;SDS011;14326;50.794;6.060;2022-07-29T13:10:37;11.40;;;3.08;;
26718;SDS011;14326;50.794;6.060;2022-07-29T13:13:04;9.85;;;2.75;;
26718;SDS011;14326;50.794;6.060;2022-07-29T13:15:33;11.27;;;3.42;;
26718;SDS011;14326;50.794;6.060;2022-07-29T13:18:01;11.65;;;2.78;;
26718;SDS011;14326;50.794;6.060;2022-07-29T13:20:29;9.80;;;3.20;;
26718;SDS011;14326;50.794;6.060;2022-07-29T13:22:56;9.27;;;3.10;;
26718;SDS011;14326;50.794;6.060;2022-07-29T13:25:24;8.85;;;2.58;;
26718;SDS011;14326;50.794;6.060;2022-07-29T13:27:52;10.27;;;2.65;;
26718;SDS011;14326;50.794;6.060;2022-07-29T13:30:20;9.77;;;3.20;;
26718;SDS011;14326;50.794;6.060;2022-07-29T13:32:48;8.38;;;2.75;;
26718;SDS011;14326;50.794;6.060;2022-07-29T13:35:16;7.65;;;2.47;;
26718;SDS011;14326;50.794;6.060;2022-07-29T13:37:44;9.43;;;2.80;;
26718;SDS011;14326;50.794;6.060;2022-07-29T13:40:11;10.00;;;2.50;;
26718;SDS011;14326;50.794;6.060;2022-07-29T13:42:38;10.65;;;2.58;;
26718;SDS011;14326;50.794;6.060;2022-07-29T13:45:06;10.82;;;2.38;;
26718;SDS011;14326;50.794;6.060;2022-07-29T13:47:33;8.55;;;2.55;;
26718;SDS011;14326;50.794;6.060;2022-07-29T13:50:00;5.13;;;1.98;;
26718;SDS011;14326;50.794;6.060;2022-07-29T13:52:28;9.82;;;2.15;;
26718;SDS011;14326;50.794;6.060;2022-07-29T13:54:55;6.70;;;2.15;;
26718;SDS011;14326;50.794;6.060;2022-07-29T13:57:22;5.47;;;2.10;;
26718;SDS011;14326;50.794;6.060;2022-07-29T13:59:49;7.53;;;2.17;;
26718;SDS011;14326;50.794;6.060;2022-07-29T14:02:16;4.95;;;2.25;;
26718;SDS011;14326;50.794;6.060;2022-07-29T14:04:43;8.18;;;2.22;;
26718;SDS011;14326;50.794;6.060;2022-07-29T14:07:10;5.25;;;2.13;;
26718;SDS011;14326;50.794;6.060;2022-07-29T14:09:38;6.82;;;2.30;;
26718;SDS011;14326;50.794;6.060;2022-07-29T14:12:05;6.82;;;2.40;;
26718;SDS011;14326;50.794;6.060;2022-07-29T14:14:32;10.07;;;2.45;;
26718;SDS011;14326;50.794;6.060;2022-07-29T14:17:00;5.68;;;2.25;;
26718;SDS011;14326;50.794;6.060;2022-07-29T14:19:28;8.40;;;2.22;;
26718;SDS011;14326;50.794;6.060;2022-07-29T14:21:54;7.15;;;2.13;;
26718;SDS011;14326;50.794;6.060;2022-07-29T14:24:21;7.10;;;2.33;;
26718;SDS011;14326;50.794;6.060;2022-07-29T14:26:49;10.82;;;2.90;;
26718;SDS011;14326;50.794;6.060;2022-07-29T14:29:15;7.53;;;2.67;;
26718;SDS011;14326;50.794;6.060;2022-07-29T14:31:42;7.97;;;2.55;;
26718;SDS011;14326;50.794;6.060;2022-07-29T14:34:08;6.88;;;2.10;;
26718;SDS011;14326;50.794;6.060;2022-07-29T14:36:35;9.23;;;2.60;;
26718;SDS011;14326;50.794;6.060;2022-07-29T14:39:02;6.78;;;2.33;;
26718;SDS011;14326;50.794;6.060;2022-07-29T14:41:29;5.55;;;2.15;;
26718;SDS011;14326;50.794;6.060;2022-07-29T14:43:57;6.10;;;2.00;;
26718;SDS011;14326;50.794;6.060;2022-07-29T14:46:25;6.90;;;2.28;;
26718;SDS011;14326;50.794;6.060;2022-07-29T14:48:52;5.15;;;2.22;;
26718;SDS011;14326;50.794;6.060;2022-07-29T14:51:19;6.90;;;2.08;;
26718;SDS011;14326;50.794;6.060;2022-07-29T14:53:45;4.68;;;2.15;;
26718;SDS011;14326;50.794;6.060;2022-07-29T14:56:12;8.73;;;2.58;;
26718;SDS011;14326;50.794;6.060;2022-07-29T14:58:38;9.10;;;2.47;;
26718;SDS011;14326;50.794;6.060;2022-07-29T15:01:06;6.25;;;2.20;;
26718;SDS011;14326;50.794;6.060;2022-07-29T15:03:33;9.18;;;2.85;;
26718;SDS011;14326;50.794;6.060;2022-07-29T15:06:00;8.13;;;2.65;;
26718;SDS011;14326;50.794;6.060;2022-07-29T15:08:26;7.80;;;2.45;;
26718;SDS011;14326;50.794;6.060;2022-07-29T15:10:54;8.50;;;2.50;;
26718;SDS011;14326;50.794;6.060;2022-07-29T15:13:22;7.28;;;2.85;;
26718;SDS011;14326;50.794;6.060;2022-07-29T15:15:49;7.28;;;2.65;;
26718;SDS011;14326;50.794;6.060;2022-07-29T15:18:17;9.55;;;3.22;;